Sierra Madre, CA (91025)

12:46 AM PDT on September 02, 2014 (GMT -0700)
Sierra Madre | Change Station
CLOSE
Current Station
Personal Weather Station
Location: Sierra Madre, CA
Elevation: 673 ft
Nearby Weather Stations

Elev 673 ft 34.16 °N, 118.04 °W | Updated 9 minutes ago

Clear
Clear
66.3 °F
Feels Like 66.3 °F
N
0.0
Wind Variable Wind from South

Today
High -- | Low -- °F
--% Chance of Precip.
Yesterday
High -- | Low -- °F
Precip. -- in
6:26 AM 7:16 PM
Waxing Crescent, 49% visible
Pressure 29.81 in
Visibility 10.0 miles
Clouds Clear
Dew Point 61 °F
Humidity 82%
Rainfall 0.00 in
Snow Depth Not available.
UV 0 out of 12
Pollen 7.80 out of 12
Ozone Good
PM2.5 Moderate
Flu Activity Not available.
METAR KCQT 020647Z AUTO 00000KT 10SM CLR 22/16 A2982 RMK AO2 SLP094 T02170161

More Conditions Fewer Conditions

Pressure 29.81 in
Visibility 10.0 miles
Clouds Clear
Dew Point 61 °F
Humidity 82%
Rainfall 0.00 in
Snow Depth Not available.
UV 0 out of 12
Pollen 7.80 out of 12
Ozone Good
PM2.5 Moderate
Flu Activity Not available.
METAR KCQT 020647Z AUTO 00000KT 10SM CLR 22/16 A2982 RMK AO2 SLP094 T02170161

More Conditions Fewer Conditions

10-Day Weather Forecast

Almanac

Astronomy

Sep. 02, 2014 Rise Set
Actual Time 6:26 AM PDT 7:16 PM PDT
Civil Twilight 6:00 AM PDT 7:42 PM PDT
Nautical Twilight 5:30 AM PDT 8:12 PM PDT
Astronomical Twilight 4:59 AM PDT 8:43 PM PDT
Moon 1:56 PM PDT No Moon Set
Length of Visible Light 13h 41m
Length of Day
12h 50m
Tomorrow will be 2m 3s shorter.
Waxing Crescent, 49% of the Moon is Illuminated
Today
Waxing Crescent
Sep 2
First Quarter
Sep 8
Full
Sep 15
Last Quarter
Sep 24
New

Today's Extremes

State Highs State Lows

Community

WunderPhotos

Upload Photos

1,749,589 photos uploaded!

WunderBlogs® & News

Nearby

Air Quality

  Air Quality AQ Index Pollutant
Yesterday Unhealthy for Sensitive Groups
OZONE
Yesterday Moderate
PM2.5
Current Moderate
PM2.5
Current Good
OZONE
Tuesday Good
OZONE
Tuesday Good
PM10
Tuesday Good
CO
Tuesday Good
NO2

Snow Depth

Station Depth Elevation
Leavitt Lake 0 in 9400 ft
Leavitt Meadows 0 in 7200 ft
Monitor Pass 0 in 8350 ft
Blue Lakes 0 in 8000 ft
Forestdale Creek 0 in 8029 ft

Earthquake Activity

City Distance Mag. Time & Date
Malibu, California 66 miles 2.5 8:11 AM PDT
2014-08-30
Minimum magnitude displayed is 2.5.

Coastal Water Temperatures

Place Temperature
Santa Monica Pier 73.0 °F
Los Angeles, CA 71.1 °F
La Jolla, CA 70.0 °F

Nearby Weather Stations